sensor_id;sensor_type;location;lat;lon;timestamp;temperature;humidity
17370;DHT22;8802;52.402;4.920;2022-12-07T00:00:14;9.30;99.90
17370;DHT22;8802;52.402;4.920;2022-12-07T00:02:41;9.40;99.90
17370;DHT22;8802;52.402;4.920;2022-12-07T00:05:08;9.30;99.80
17370;DHT22;8802;52.402;4.920;2022-12-07T00:07:34;9.30;99.70
17370;DHT22;8802;52.402;4.920;2022-12-07T00:10:03;9.30;99.70
17370;DHT22;8802;52.402;4.920;2022-12-07T00:12:30;9.30;99.70
17370;DHT22;8802;52.402;4.920;2022-12-07T00:14:57;9.30;99.80
17370;DHT22;8802;52.402;4.920;2022-12-07T00:17:24;9.30;99.80
17370;DHT22;8802;52.402;4.920;2022-12-07T00:19:50;9.30;99.70
17370;DHT22;8802;52.402;4.920;2022-12-07T00:22:17;9.30;99.70
17370;DHT22;8802;52.402;4.920;2022-12-07T00:24:44;9.40;99.70
17370;DHT22;8802;52.402;4.920;2022-12-07T00:27:12;9.40;99.70
17370;DHT22;8802;52.402;4.920;2022-12-07T00:29:39;9.40;99.70
17370;DHT22;8802;52.402;4.920;2022-12-07T00:32:06;9.30;99.70
17370;DHT22;8802;52.402;4.920;2022-12-07T00:34:33;9.40;99.70
17370;DHT22;8802;52.402;4.920;2022-12-07T00:36:59;9.40;99.60
17370;DHT22;8802;52.402;4.920;2022-12-07T00:39:26;9.30;99.50
17370;DHT22;8802;52.402;4.920;2022-12-07T00:41:53;9.30;99.50
17370;DHT22;8802;52.402;4.920;2022-12-07T00:44:21;9.30;99.50
17370;DHT22;8802;52.402;4.920;2022-12-07T00:46:48;9.30;99.50
17370;DHT22;8802;52.402;4.920;2022-12-07T00:49:15;9.30;99.60
17370;DHT22;8802;52.402;4.920;2022-12-07T00:51:42;9.30;99.50
17370;DHT22;8802;52.402;4.920;2022-12-07T00:54:09;9.30;99.50
17370;DHT22;8802;52.402;4.920;2022-12-07T00:56:35;9.30;99.50
17370;DHT22;8802;52.402;4.920;2022-12-07T00:59:03;9.40;99.60
17370;DHT22;8802;52.402;4.920;2022-12-07T01:01:33;9.30;99.40
17370;DHT22;8802;52.402;4.920;2022-12-07T01:04:00;9.30;99.40
17370;DHT22;8802;52.402;4.920;2022-12-07T01:06:28;9.20;99.40
17370;DHT22;8802;52.402;4.920;2022-12-07T01:08:55;9.30;99.40
17370;DHT22;8802;52.402;4.920;2022-12-07T01:11:24;9.30;99.40
17370;DHT22;8802;52.402;4.920;2022-12-07T01:13:52;9.30;99.40
17370;DHT22;8802;52.402;4.920;2022-12-07T01:16:20;9.40;99.50
17370;DHT22;8802;52.402;4.920;2022-12-07T01:18:51;9.30;99.50
17370;DHT22;8802;52.402;4.920;2022-12-07T01:21:21;9.20;99.60
17370;DHT22;8802;52.402;4.920;2022-12-07T01:23:48;9.20;99.70
17370;DHT22;8802;52.402;4.920;2022-12-07T01:26:16;9.30;99.70
17370;DHT22;8802;52.402;4.920;2022-12-07T01:28:44;9.20;99.80
17370;DHT22;8802;52.402;4.920;2022-12-07T01:31:13;9.20;99.80
17370;DHT22;8802;52.402;4.920;2022-12-07T01:33:41;9.30;99.90
17370;DHT22;8802;52.402;4.920;2022-12-07T01:36:14;9.30;99.90
17370;DHT22;8802;52.402;4.920;2022-12-07T01:38:41;9.20;99.90
17370;DHT22;8802;52.402;4.920;2022-12-07T01:41:09;9.30;99.90
17370;DHT22;8802;52.402;4.920;2022-12-07T01:43:36;9.30;99.90
17370;DHT22;8802;52.402;4.920;2022-12-07T01:46:03;9.30;99.90
17370;DHT22;8802;52.402;4.920;2022-12-07T01:48:33;9.30;99.90
17370;DHT22;8802;52.402;4.920;2022-12-07T01:51:03;9.30;99.90
17370;DHT22;8802;52.402;4.920;2022-12-07T01:53:34;9.30;99.90
17370;DHT22;8802;52.402;4.920;2022-12-07T01:56:02;9.30;99.80
17370;DHT22;8802;52.402;4.920;2022-12-07T01:58:29;9.30;99.70
17370;DHT22;8802;52.402;4.920;2022-12-07T02:00:56;9.40;99.70
17370;DHT22;8802;52.402;4.920;2022-12-07T02:03:27;9.40;99.70
17370;DHT22;8802;52.402;4.920;2022-12-07T02:05:57;9.30;99.50
17370;DHT22;8802;52.402;4.920;2022-12-07T02:08:25;9.30;99.80
17370;DHT22;8802;52.402;4.920;2022-12-07T02:10:54;9.30;99.40
17370;DHT22;8802;52.402;4.920;2022-12-07T02:13:23;9.30;99.40
17370;DHT22;8802;52.402;4.920;2022-12-07T02:16:08;9.30;99.40
17370;DHT22;8802;52.402;4.920;2022-12-07T02:18:48;9.30;99.40
17370;DHT22;8802;52.402;4.920;2022-12-07T02:21:29;9.30;99.50
17370;DHT22;8802;52.402;4.920;2022-12-07T02:24:25;9.30;99.60
17370;DHT22;8802;52.402;4.920;2022-12-07T02:30:14;9.30;99.60
17370;DHT22;8802;52.402;4.920;2022-12-07T02:32:45;9.30;99.70
17370;DHT22;8802;52.402;4.920;2022-12-07T02:35:19;9.30;99.70
17370;DHT22;8802;52.402;4.920;2022-12-07T02:37:53;9.30;99.70
17370;DHT22;8802;52.402;4.920;2022-12-07T02:40:25;9.30;99.60
17370;DHT22;8802;52.402;4.920;2022-12-07T02:42:59;9.30;99.60
17370;DHT22;8802;52.402;4.920;2022-12-07T02:45:30;9.30;99.60
17370;DHT22;8802;52.402;4.920;2022-12-07T02:47:59;9.30;99.60
17370;DHT22;8802;52.402;4.920;2022-12-07T02:50:27;9.30;99.60
17370;DHT22;8802;52.402;4.920;2022-12-07T02:52:54;9.30;99.60
17370;DHT22;8802;52.402;4.920;2022-12-07T02:55:24;9.30;99.50
17370;DHT22;8802;52.402;4.920;2022-12-07T02:58:14;9.30;99.40
17370;DHT22;8802;52.402;4.920;2022-12-07T03:00:54;9.30;99.30
17370;DHT22;8802;52.402;4.920;2022-12-07T03:03:23;9.30;99.30
17370;DHT22;8802;52.402;4.920;2022-12-07T03:06:03;9.20;99.30
17370;DHT22;8802;52.402;4.920;2022-12-07T03:08:43;9.20;99.30
17370;DHT22;8802;52.402;4.920;2022-12-07T03:11:14;9.20;99.30
17370;DHT22;8802;52.402;4.920;2022-12-07T03:13:46;9.20;99.40
17370;DHT22;8802;52.402;4.920;2022-12-07T03:16:18;9.20;99.40
17370;DHT22;8802;52.402;4.920;2022-12-07T03:18:49;9.10;99.40
17370;DHT22;8802;52.402;4.920;2022-12-07T03:21:20;9.20;99.50
17370;DHT22;8802;52.402;4.920;2022-12-07T03:23:51;9.10;99.60
17370;DHT22;8802;52.402;4.920;2022-12-07T03:26:19;9.10;99.70
17370;DHT22;8802;52.402;4.920;2022-12-07T03:28:52;9.20;99.80
17370;DHT22;8802;52.402;4.920;2022-12-07T03:31:23;9.20;99.80
17370;DHT22;8802;52.402;4.920;2022-12-07T03:33:55;9.10;99.70
17370;DHT22;8802;52.402;4.920;2022-12-07T03:36:27;9.20;99.70
17370;DHT22;8802;52.402;4.920;2022-12-07T03:39:00;9.20;99.70
17370;DHT22;8802;52.402;4.920;2022-12-07T03:41:31;9.20;99.70
17370;DHT22;8802;52.402;4.920;2022-12-07T03:43:58;9.20;99.70
17370;DHT22;8802;52.402;4.920;2022-12-07T03:46:34;9.20;99.70
17370;DHT22;8802;52.402;4.920;2022-12-07T03:49:07;9.20;99.60
17370;DHT22;8802;52.402;4.920;2022-12-07T03:51:40;9.20;99.50
17370;DHT22;8802;52.402;4.920;2022-12-07T03:54:13;9.20;99.40
17370;DHT22;8802;52.402;4.920;2022-12-07T03:56:42;9.10;99.50
17370;DHT22;8802;52.402;4.920;2022-12-07T03:59:09;9.10;99.60
17370;DHT22;8802;52.402;4.920;2022-12-07T04:01:41;9.10;99.60
17370;DHT22;8802;52.402;4.920;2022-12-07T04:04:08;9.10;99.60
17370;DHT22;8802;52.402;4.920;2022-12-07T04:06:35;9.10;99.70
17370;DHT22;8802;52.402;4.920;2022-12-07T04:09:02;9.10;99.70
17370;DHT22;8802;52.402;4.920;2022-12-07T04:11:29;9.10;99.60
17370;DHT22;8802;52.402;4.920;2022-12-07T04:13:56;9.10;99.60
17370;DHT22;8802;52.402;4.920;2022-12-07T04:16:42;9.10;99.60
17370;DHT22;8802;52.402;4.920;2022-12-07T04:19:08;9.10;99.50
17370;DHT22;8802;52.402;4.920;2022-12-07T04:21:35;9.10;99.50
17370;DHT22;8802;52.402;4.920;2022-12-07T04:24:02;9.10;99.40
17370;DHT22;8802;52.402;4.920;2022-12-07T04:26:29;9.10;99.40
17370;DHT22;8802;52.402;4.920;2022-12-07T04:28:56;9.10;99.40
17370;DHT22;8802;52.402;4.920;2022-12-07T04:31:23;9.10;99.40
17370;DHT22;8802;52.402;4.920;2022-12-07T04:33:51;9.10;99.40
17370;DHT22;8802;52.402;4.920;2022-12-07T04:36:18;9.10;99.40
17370;DHT22;8802;52.402;4.920;2022-12-07T04:38:46;9.10;99.50
17370;DHT22;8802;52.402;4.920;2022-12-07T04:41:13;9.10;99.50
17370;DHT22;8802;52.402;4.920;2022-12-07T04:43:40;9.10;99.30
17370;DHT22;8802;52.402;4.920;2022-12-07T04:46:06;9.10;99.30
17370;DHT22;8802;52.402;4.920;2022-12-07T04:48:33;9.00;99.30
17370;DHT22;8802;52.402;4.920;2022-12-07T04:51:02;9.10;99.30
17370;DHT22;8802;52.402;4.920;2022-12-07T04:53:29;9.10;99.30
17370;DHT22;8802;52.402;4.920;2022-12-07T04:55:56;9.00;99.30
17370;DHT22;8802;52.402;4.920;2022-12-07T04:58:23;9.00;99.30
17370;DHT22;8802;52.402;4.920;2022-12-07T05:00:49;9.00;99.30
17370;DHT22;8802;52.402;4.920;2022-12-07T05:03:19;9.00;99.40
17370;DHT22;8802;52.402;4.920;2022-12-07T05:05:46;9.00;99.40
17370;DHT22;8802;52.402;4.920;2022-12-07T05:08:14;9.00;99.40
17370;DHT22;8802;52.402;4.920;2022-12-07T05:10:41;9.20;99.40
17370;DHT22;8802;52.402;4.920;2022-12-07T05:13:08;9.00;99.40
17370;DHT22;8802;52.402;4.920;2022-12-07T05:15:35;9.00;99.40
17370;DHT22;8802;52.402;4.920;2022-12-07T05:18:02;9.00;99.40
17370;DHT22;8802;52.402;4.920;2022-12-07T05:20:29;8.90;99.40
17370;DHT22;8802;52.402;4.920;2022-12-07T05:22:56;8.90;99.30
17370;DHT22;8802;52.402;4.920;2022-12-07T05:25:25;9.00;99.30
17370;DHT22;8802;52.402;4.920;2022-12-07T05:27:52;8.90;99.20
17370;DHT22;8802;52.402;4.920;2022-12-07T05:30:19;8.90;99.10
17370;DHT22;8802;52.402;4.920;2022-12-07T05:32:45;8.90;99.10
17370;DHT22;8802;52.402;4.920;2022-12-07T05:35:12;8.80;99.20
17370;DHT22;8802;52.402;4.920;2022-12-07T05:37:39;8.80;99.30
17370;DHT22;8802;52.402;4.920;2022-12-07T05:40:07;8.80;99.40
17370;DHT22;8802;52.402;4.920;2022-12-07T05:42:35;8.80;99.40
17370;DHT22;8802;52.402;4.920;2022-12-07T05:45:03;8.80;99.30
17370;DHT22;8802;52.402;4.920;2022-12-07T05:47:30;8.80;99.40
17370;DHT22;8802;52.402;4.920;2022-12-07T05:49:57;8.80;99.30
17370;DHT22;8802;52.402;4.920;2022-12-07T05:52:24;8.80;99.30
17370;DHT22;8802;52.402;4.920;2022-12-07T05:54:51;8.80;99.40
17370;DHT22;8802;52.402;4.920;2022-12-07T05:57:18;8.80;99.40
17370;DHT22;8802;52.402;4.920;2022-12-07T05:59:47;8.80;99.40
17370;DHT22;8802;52.402;4.920;2022-12-07T06:02:14;8.80;99.30
17370;DHT22;8802;52.402;4.920;2022-12-07T06:04:43;8.90;99.70
17370;DHT22;8802;52.402;4.920;2022-12-07T06:07:11;8.80;99.30
17370;DHT22;8802;52.402;4.920;2022-12-07T06:09:38;8.80;99.40
17370;DHT22;8802;52.402;4.920;2022-12-07T06:12:06;8.80;99.40
17370;DHT22;8802;52.402;4.920;2022-12-07T06:14:52;8.80;99.30
17370;DHT22;8802;52.402;4.920;2022-12-07T06:17:19;8.80;99.40
17370;DHT22;8802;52.402;4.920;2022-12-07T06:19:46;8.80;99.40
17370;DHT22;8802;52.402;4.920;2022-12-07T06:22:12;8.70;99.50
17370;DHT22;8802;52.402;4.920;2022-12-07T06:24:42;8.70;99.60
17370;DHT22;8802;52.402;4.920;2022-12-07T06:27:09;8.70;99.60
17370;DHT22;8802;52.402;4.920;2022-12-07T06:29:36;8.70;99.70
17370;DHT22;8802;52.402;4.920;2022-12-07T06:32:04;8.70;99.80
17370;DHT22;8802;52.402;4.920;2022-12-07T06:34:31;8.70;99.70
17370;DHT22;8802;52.402;4.920;2022-12-07T06:36:58;8.70;99.80
17370;DHT22;8802;52.402;4.920;2022-12-07T06:39:27;8.70;99.80
17370;DHT22;8802;52.402;4.920;2022-12-07T06:41:54;8.80;99.80
17370;DHT22;8802;52.402;4.920;2022-12-07T06:44:22;8.70;99.70
17370;DHT22;8802;52.402;4.920;2022-12-07T06:46:49;8.80;99.70
17370;DHT22;8802;52.402;4.920;2022-12-07T06:49:17;8.80;99.70
17370;DHT22;8802;52.402;4.920;2022-12-07T06:51:44;8.70;99.60
17370;DHT22;8802;52.402;4.920;2022-12-07T06:54:13;8.80;99.60
17370;DHT22;8802;52.402;4.920;2022-12-07T06:56:40;8.80;99.60
17370;DHT22;8802;52.402;4.920;2022-12-07T06:59:07;8.80;99.60
17370;DHT22;8802;52.402;4.920;2022-12-07T07:01:35;8.80;99.60
17370;DHT22;8802;52.402;4.920;2022-12-07T07:04:02;8.80;99.50
17370;DHT22;8802;52.402;4.920;2022-12-07T07:06:30;8.80;99.40
17370;DHT22;8802;52.402;4.920;2022-12-07T07:08:57;8.80;99.40
17370;DHT22;8802;52.402;4.920;2022-12-07T07:11:24;8.80;99.40
17370;DHT22;8802;52.402;4.920;2022-12-07T07:13:51;8.80;99.40
17370;DHT22;8802;52.402;4.920;2022-12-07T07:16:18;8.80;99.40
17370;DHT22;8802;52.402;4.920;2022-12-07T07:18:45;8.80;99.40
17370;DHT22;8802;52.402;4.920;2022-12-07T07:21:12;8.80;99.40
17370;DHT22;8802;52.402;4.920;2022-12-07T07:23:40;8.80;99.40
17370;DHT22;8802;52.402;4.920;2022-12-07T07:26:07;8.80;99.40
17370;DHT22;8802;52.402;4.920;2022-12-07T07:28:33;8.80;99.30
17370;DHT22;8802;52.402;4.920;2022-12-07T07:31:00;8.80;99.30
17370;DHT22;8802;52.402;4.920;2022-12-07T07:33:27;8.70;99.20
17370;DHT22;8802;52.402;4.920;2022-12-07T07:35:54;8.70;99.30
17370;DHT22;8802;52.402;4.920;2022-12-07T07:38:21;8.70;99.40
17370;DHT22;8802;52.402;4.920;2022-12-07T07:40:49;8.70;99.40
17370;DHT22;8802;52.402;4.920;2022-12-07T07:43:16;8.70;99.50
17370;DHT22;8802;52.402;4.920;2022-12-07T07:45:42;8.70;99.60
17370;DHT22;8802;52.402;4.920;2022-12-07T07:48:10;8.70;99.60
17370;DHT22;8802;52.402;4.920;2022-12-07T07:50:37;8.70;99.60
17370;DHT22;8802;52.402;4.920;2022-12-07T07:53:04;8.70;99.60
17370;DHT22;8802;52.402;4.920;2022-12-07T07:55:30;8.80;99.60
17370;DHT22;8802;52.402;4.920;2022-12-07T07:57:59;8.70;99.60
17370;DHT22;8802;52.402;4.920;2022-12-07T08:00:25;8.70;99.60
17370;DHT22;8802;52.402;4.920;2022-12-07T08:02:52;8.70;99.60
17370;DHT22;8802;52.402;4.920;2022-12-07T08:05:19;8.80;99.70
17370;DHT22;8802;52.402;4.920;2022-12-07T08:07:46;8.80;99.60
17370;DHT22;8802;52.402;4.920;2022-12-07T08:10:13;8.80;99.60
17370;DHT22;8802;52.402;4.920;2022-12-07T08:12:41;8.80;99.70
17370;DHT22;8802;52.402;4.920;2022-12-07T08:15:24;8.80;99.70
17370;DHT22;8802;52.402;4.920;2022-12-07T08:17:51;8.80;99.70
17370;DHT22;8802;52.402;4.920;2022-12-07T08:20:18;8.80;99.80
17370;DHT22;8802;52.402;4.920;2022-12-07T08:22:45;8.80;99.80
17370;DHT22;8802;52.402;4.920;2022-12-07T08:25:11;8.90;99.90
17370;DHT22;8802;52.402;4.920;2022-12-07T08:27:38;8.90;99.90
17370;DHT22;8802;52.402;4.920;2022-12-07T08:30:06;8.80;99.80
17370;DHT22;8802;52.402;4.920;2022-12-07T08:32:35;8.70;99.80
17370;DHT22;8802;52.402;4.920;2022-12-07T08:35:02;8.90;99.90
17370;DHT22;8802;52.402;4.920;2022-12-07T08:37:28;8.90;99.90
17370;DHT22;8802;52.402;4.920;2022-12-07T08:39:55;8.90;99.90
17370;DHT22;8802;52.402;4.920;2022-12-07T08:42:22;9.00;99.90
17370;DHT22;8802;52.402;4.920;2022-12-07T08:44:52;9.00;99.90
17370;DHT22;8802;52.402;4.920;2022-12-07T08:47:19;8.90;99.90
17370;DHT22;8802;52.402;4.920;2022-12-07T08:49:49;9.00;99.90
17370;DHT22;8802;52.402;4.920;2022-12-07T08:52:17;9.00;99.90
17370;DHT22;8802;52.402;4.920;2022-12-07T08:54:44;9.00;99.90
17370;DHT22;8802;52.402;4.920;2022-12-07T08:57:12;9.00;99.90
17370;DHT22;8802;52.402;4.920;2022-12-07T08:59:39;9.10;99.90
17370;DHT22;8802;52.402;4.920;2022-12-07T09:02:06;9.00;99.90
17370;DHT22;8802;52.402;4.920;2022-12-07T09:04:33;9.10;99.90
17370;DHT22;8802;52.402;4.920;2022-12-07T09:07:01;9.10;99.90
17370;DHT22;8802;52.402;4.920;2022-12-07T09:09:28;9.10;99.90
17370;DHT22;8802;52.402;4.920;2022-12-07T09:11:55;9.10;99.90
17370;DHT22;8802;52.402;4.920;2022-12-07T09:14:22;9.20;99.90
17370;DHT22;8802;52.402;4.920;2022-12-07T09:16:49;9.40;99.90
17370;DHT22;8802;52.402;4.920;2022-12-07T09:19:16;9.20;99.90
17370;DHT22;8802;52.402;4.920;2022-12-07T09:21:43;9.20;99.90
17370;DHT22;8802;52.402;4.920;2022-12-07T09:24:11;9.30;99.90
17370;DHT22;8802;52.402;4.920;2022-12-07T09:26:38;9.30;99.90
17370;DHT22;8802;52.402;4.920;2022-12-07T09:29:06;9.30;99.90
17370;DHT22;8802;52.402;4.920;2022-12-07T09:31:32;9.40;99.90
17370;DHT22;8802;52.402;4.920;2022-12-07T09:34:01;9.40;99.90
17370;DHT22;8802;52.402;4.920;2022-12-07T09:36:30;9.40;99.90
17370;DHT22;8802;52.402;4.920;2022-12-07T09:38:57;9.50;99.90
17370;DHT22;8802;52.402;4.920;2022-12-07T09:41:26;9.40;99.90
17370;DHT22;8802;52.402;4.920;2022-12-07T09:43:59;9.50;99.90
17370;DHT22;8802;52.402;4.920;2022-12-07T09:46:33;9.50;99.90
17370;DHT22;8802;52.402;4.920;2022-12-07T09:49:01;9.50;99.90
17370;DHT22;8802;52.402;4.920;2022-12-07T09:51:28;9.50;99.90
17370;DHT22;8802;52.402;4.920;2022-12-07T09:53:57;9.50;99.80
17370;DHT22;8802;52.402;4.920;2022-12-07T09:56:28;9.50;99.80
17370;DHT22;8802;52.402;4.920;2022-12-07T09:58:59;9.60;99.90
17370;DHT22;8802;52.402;4.920;2022-12-07T10:01:29;9.60;99.90
17370;DHT22;8802;52.402;4.920;2022-12-07T10:04:05;9.70;99.90
17370;DHT22;8802;52.402;4.920;2022-12-07T10:06:32;9.70;99.90
17370;DHT22;8802;52.402;4.920;2022-12-07T10:08:59;9.70;99.90
17370;DHT22;8802;52.402;4.920;2022-12-07T10:11:27;9.80;99.90
17370;DHT22;8802;52.402;4.920;2022-12-07T10:13:54;9.80;99.80
17370;DHT22;8802;52.402;4.920;2022-12-07T10:16:34;9.90;99.70
17370;DHT22;8802;52.402;4.920;2022-12-07T10:19:18;9.90;99.60
17370;DHT22;8802;52.402;4.920;2022-12-07T10:22:00;9.90;99.40
17370;DHT22;8802;52.402;4.920;2022-12-07T10:24:28;9.90;99.30
17370;DHT22;8802;52.402;4.920;2022-12-07T10:26:56;10.00;99.40
17370;DHT22;8802;52.402;4.920;2022-12-07T10:29:29;10.00;99.40
17370;DHT22;8802;52.402;4.920;2022-12-07T10:31:58;10.00;99.50
17370;DHT22;8802;52.402;4.920;2022-12-07T10:34:27;10.00;99.40
17370;DHT22;8802;52.402;4.920;2022-12-07T10:37:13;10.10;99.50
17370;DHT22;8802;52.402;4.920;2022-12-07T10:39:42;10.10;99.50
17370;DHT22;8802;52.402;4.920;2022-12-07T10:42:18;10.20;99.60
17370;DHT22;8802;52.402;4.920;2022-12-07T10:44:46;10.30;99.40
17370;DHT22;8802;52.402;4.920;2022-12-07T10:47:21;10.30;99.40
17370;DHT22;8802;52.402;4.920;2022-12-07T10:50:17;10.30;99.30
17370;DHT22;8802;52.402;4.920;2022-12-07T10:53:03;10.40;99.40
17370;DHT22;8802;52.402;4.920;2022-12-07T10:55:46;10.50;99.40
17370;DHT22;8802;52.402;4.920;2022-12-07T10:58:30;10.50;99.40
17370;DHT22;8802;52.402;4.920;2022-12-07T11:01:04;10.60;99.40
17370;DHT22;8802;52.402;4.920;2022-12-07T11:03:50;10.60;99.70
17370;DHT22;8802;52.402;4.920;2022-12-07T11:06:27;10.70;99.70
17370;DHT22;8802;52.402;4.920;2022-12-07T11:09:08;10.70;99.30
17370;DHT22;8802;52.402;4.920;2022-12-07T11:11:49;10.80;99.20
17370;DHT22;8802;52.402;4.920;2022-12-07T11:14:25;10.90;99.30
17370;DHT22;8802;52.402;4.920;2022-12-07T11:16:57;10.90;99.20
17370;DHT22;8802;52.402;4.920;2022-12-07T11:19:40;11.00;99.30
17370;DHT22;8802;52.402;4.920;2022-12-07T11:22:19;11.00;98.80
17370;DHT22;8802;52.402;4.920;2022-12-07T11:24:52;11.10;99.10
17370;DHT22;8802;52.402;4.920;2022-12-07T11:27:29;11.10;98.90
17370;DHT22;8802;52.402;4.920;2022-12-07T11:30:16;11.10;98.80
17370;DHT22;8802;52.402;4.920;2022-12-07T11:32:54;11.20;98.70
17370;DHT22;8802;52.402;4.920;2022-12-07T11:35:33;11.20;98.80
17370;DHT22;8802;52.402;4.920;2022-12-07T11:38:09;11.30;98.90
17370;DHT22;8802;52.402;4.920;2022-12-07T11:40:38;11.30;98.50
17370;DHT22;8802;52.402;4.920;2022-12-07T11:43:14;11.30;98.50
17370;DHT22;8802;52.402;4.920;2022-12-07T11:45:46;11.30;98.30
17370;DHT22;8802;52.402;4.920;2022-12-07T11:48:18;11.30;98.40
17370;DHT22;8802;52.402;4.920;2022-12-07T11:50:52;11.20;98.20
17370;DHT22;8802;52.402;4.920;2022-12-07T11:53:24;11.10;98.00
17370;DHT22;8802;52.402;4.920;2022-12-07T11:55:56;11.00;98.10
17370;DHT22;8802;52.402;4.920;2022-12-07T11:58:38;11.00;98.30
17370;DHT22;8802;52.402;4.920;2022-12-07T12:01:15;10.90;98.50
17370;DHT22;8802;52.402;4.920;2022-12-07T12:03:47;10.90;98.60
17370;DHT22;8802;52.402;4.920;2022-12-07T12:06:14;10.90;98.60
17370;DHT22;8802;52.402;4.920;2022-12-07T12:08:45;10.90;98.60
17370;DHT22;8802;52.402;4.920;2022-12-07T12:11:19;10.90;98.60
17370;DHT22;8802;52.402;4.920;2022-12-07T12:14:07;10.90;98.70
17370;DHT22;8802;52.402;4.920;2022-12-07T12:17:04;10.90;98.60
17370;DHT22;8802;52.402;4.920;2022-12-07T12:19:38;10.90;98.80
17370;DHT22;8802;52.402;4.920;2022-12-07T12:22:12;10.90;98.80
17370;DHT22;8802;52.402;4.920;2022-12-07T12:24:41;10.90;98.40
17370;DHT22;8802;52.402;4.920;2022-12-07T12:27:15;10.90;98.20
17370;DHT22;8802;52.402;4.920;2022-12-07T12:29:44;10.90;98.10
17370;DHT22;8802;52.402;4.920;2022-12-07T12:32:21;10.90;98.10
17370;DHT22;8802;52.402;4.920;2022-12-07T12:35:02;10.90;98.00
17370;DHT22;8802;52.402;4.920;2022-12-07T12:37:45;10.90;98.00
17370;DHT22;8802;52.402;4.920;2022-12-07T12:43:49;10.90;98.20
17370;DHT22;8802;52.402;4.920;2022-12-07T12:46:52;10.90;98.20
17370;DHT22;8802;52.402;4.920;2022-12-07T12:49:34;10.90;98.20
17370;DHT22;8802;52.402;4.920;2022-12-07T12:55:14;10.90;97.90
17370;DHT22;8802;52.402;4.920;2022-12-07T12:57:44;10.80;98.20
17370;DHT22;8802;52.402;4.920;2022-12-07T13:00:17;10.80;98.30
17370;DHT22;8802;52.402;4.920;2022-12-07T13:02:48;10.80;98.20
17370;DHT22;8802;52.402;4.920;2022-12-07T13:05:19;10.80;98.20
17370;DHT22;8802;52.402;4.920;2022-12-07T13:08:00;10.90;98.20
17370;DHT22;8802;52.402;4.920;2022-12-07T13:10:39;10.90;98.20
17370;DHT22;8802;52.402;4.920;2022-12-07T13:13:34;10.90;98.20
17370;DHT22;8802;52.402;4.920;2022-12-07T13:16:36;10.90;98.10
17370;DHT22;8802;52.402;4.920;2022-12-07T13:22:40;10.90;98.10
17370;DHT22;8802;52.402;4.920;2022-12-07T13:25:11;10.90;98.10
17370;DHT22;8802;52.402;4.920;2022-12-07T13:27:41;10.90;98.20
17370;DHT22;8802;52.402;4.920;2022-12-07T13:30:15;10.90;98.20
17370;DHT22;8802;52.402;4.920;2022-12-07T13:32:42;10.90;98.20
17370;DHT22;8802;52.402;4.920;2022-12-07T13:35:33;10.90;98.30
17370;DHT22;8802;52.402;4.920;2022-12-07T13:38:05;10.90;98.00
17370;DHT22;8802;52.402;4.920;2022-12-07T13:40:32;11.00;98.30
17370;DHT22;8802;52.402;4.920;2022-12-07T13:43:01;10.90;98.20
17370;DHT22;8802;52.402;4.920;2022-12-07T13:45:30;11.00;98.10
17370;DHT22;8802;52.402;4.920;2022-12-07T13:48:30;11.00;98.20
17370;DHT22;8802;52.402;4.920;2022-12-07T13:50:59;11.00;98.20
17370;DHT22;8802;52.402;4.920;2022-12-07T13:53:28;11.10;97.90
17370;DHT22;8802;52.402;4.920;2022-12-07T13:55:56;11.00;97.90
17370;DHT22;8802;52.402;4.920;2022-12-07T13:58:33;11.00;97.70
17370;DHT22;8802;52.402;4.920;2022-12-07T14:01:00;11.00;97.60
17370;DHT22;8802;52.402;4.920;2022-12-07T14:03:31;11.00;97.70
17370;DHT22;8802;52.402;4.920;2022-12-07T14:06:23;11.00;97.60
17370;DHT22;8802;52.402;4.920;2022-12-07T14:09:08;10.80;97.30
17370;DHT22;8802;52.402;4.920;2022-12-07T14:11:35;10.80;97.60
17370;DHT22;8802;52.402;4.920;2022-12-07T14:14:03;10.80;97.80
17370;DHT22;8802;52.402;4.920;2022-12-07T14:16:33;10.70;97.90
17370;DHT22;8802;52.402;4.920;2022-12-07T14:19:02;10.60;98.00
17370;DHT22;8802;52.402;4.920;2022-12-07T14:21:31;10.70;98.00
17370;DHT22;8802;52.402;4.920;2022-12-07T14:24:09;10.60;98.30
17370;DHT22;8802;52.402;4.920;2022-12-07T14:26:37;10.60;98.10
17370;DHT22;8802;52.402;4.920;2022-12-07T14:29:22;10.60;98.20
17370;DHT22;8802;52.402;4.920;2022-12-07T14:31:49;10.60;98.10
17370;DHT22;8802;52.402;4.920;2022-12-07T14:34:16;10.60;98.70
17370;DHT22;8802;52.402;4.920;2022-12-07T14:36:43;10.60;98.30
17370;DHT22;8802;52.402;4.920;2022-12-07T14:39:11;10.60;98.40
17370;DHT22;8802;52.402;4.920;2022-12-07T14:41:38;10.60;98.40
17370;DHT22;8802;52.402;4.920;2022-12-07T14:44:17;10.50;98.30
17370;DHT22;8802;52.402;4.920;2022-12-07T14:46:45;10.60;98.30
17370;DHT22;8802;52.402;4.920;2022-12-07T14:49:12;10.50;98.70
17370;DHT22;8802;52.402;4.920;2022-12-07T14:51:40;10.50;98.30
17370;DHT22;8802;52.402;4.920;2022-12-07T14:54:14;10.50;98.00
17370;DHT22;8802;52.402;4.920;2022-12-07T14:56:42;10.50;97.90
17370;DHT22;8802;52.402;4.920;2022-12-07T14:59:09;10.50;98.00
17370;DHT22;8802;52.402;4.920;2022-12-07T15:01:37;10.50;98.00
17370;DHT22;8802;52.402;4.920;2022-12-07T15:04:04;10.50;98.00
17370;DHT22;8802;52.402;4.920;2022-12-07T15:06:31;10.50;98.00
17370;DHT22;8802;52.402;4.920;2022-12-07T15:08:57;10.50;97.90
17370;DHT22;8802;52.402;4.920;2022-12-07T15:11:27;10.50;98.00
17370;DHT22;8802;52.402;4.920;2022-12-07T15:13:54;10.40;97.90
17370;DHT22;8802;52.402;4.920;2022-12-07T15:16:39;10.50;98.00
17370;DHT22;8802;52.402;4.920;2022-12-07T15:19:13;10.40;97.90
17370;DHT22;8802;52.402;4.920;2022-12-07T15:21:41;10.40;97.90
17370;DHT22;8802;52.402;4.920;2022-12-07T15:24:09;10.40;97.80
17370;DHT22;8802;52.402;4.920;2022-12-07T15:26:38;10.40;97.90
17370;DHT22;8802;52.402;4.920;2022-12-07T15:29:06;10.40;98.00
17370;DHT22;8802;52.402;4.920;2022-12-07T15:31:33;10.40;98.00
17370;DHT22;8802;52.402;4.920;2022-12-07T15:34:00;10.40;98.00
17370;DHT22;8802;52.402;4.920;2022-12-07T15:36:28;10.30;98.00
17370;DHT22;8802;52.402;4.920;2022-12-07T15:38:56;10.30;97.90
17370;DHT22;8802;52.402;4.920;2022-12-07T15:41:23;10.30;98.00
17370;DHT22;8802;52.402;4.920;2022-12-07T15:43:51;10.30;97.90
17370;DHT22;8802;52.402;4.920;2022-12-07T15:46:38;10.30;98.00
17370;DHT22;8802;52.402;4.920;2022-12-07T15:49:10;10.30;98.00
17370;DHT22;8802;52.402;4.920;2022-12-07T15:51:37;10.30;98.30
17370;DHT22;8802;52.402;4.920;2022-12-07T15:54:04;10.40;97.90
17370;DHT22;8802;52.402;4.920;2022-12-07T15:56:31;10.30;97.90
17370;DHT22;8802;52.402;4.920;2022-12-07T15:58:59;10.40;98.00
17370;DHT22;8802;52.402;4.920;2022-12-07T16:01:26;10.30;98.00
17370;DHT22;8802;52.402;4.920;2022-12-07T16:03:53;10.30;97.90
17370;DHT22;8802;52.402;4.920;2022-12-07T16:06:20;10.30;98.00
17370;DHT22;8802;52.402;4.920;2022-12-07T16:08:47;10.30;97.80
17370;DHT22;8802;52.402;4.920;2022-12-07T16:11:14;10.30;97.90
17370;DHT22;8802;52.402;4.920;2022-12-07T16:13:41;10.30;98.00
17370;DHT22;8802;52.402;4.920;2022-12-07T16:16:12;10.30;98.00
17370;DHT22;8802;52.402;4.920;2022-12-07T16:18:39;10.30;98.00
17370;DHT22;8802;52.402;4.920;2022-12-07T16:21:06;10.30;98.20
17370;DHT22;8802;52.402;4.920;2022-12-07T16:23:33;10.30;98.20
17370;DHT22;8802;52.402;4.920;2022-12-07T16:26:05;10.30;98.30
17370;DHT22;8802;52.402;4.920;2022-12-07T16:28:32;10.30;98.10
17370;DHT22;8802;52.402;4.920;2022-12-07T16:31:03;10.30;98.00